Time;durP1;ratioP1;P1;durP2;ratioP2;P2;SDS_P1;SDS_P2;PMS_P1;PMS_P2;Temp;Humidity;BMP_temperature;BMP_pressure;BME280_temperature;BME280_humidity;BME280_pressure;Samples;Min_cycle;Max_cycle;Signal;HPM_P1;HPM_P2
2024/03/21 00:01:19;;;;;;;59.22;30.80;;;;;;;9.50;100.00;101105.94;5058923;28;20421;-81
2024/03/21 00:03:47;;;;;;;56.95;30.15;;;;;;;9.42;100.00;101108.28;5057307;28;20417;-81
2024/03/21 00:06:15;;;;;;;55.05;29.83;;;;;;;9.48;100.00;101116.22;5060219;28;20416;-82
2024/03/21 00:08:42;;;;;;;61.05;29.10;;;;;;;9.48;100.00;101110.78;5044888;28;20933;-82
2024/03/21 00:11:09;;;;;;;54.22;28.90;;;;;;;9.50;100.00;101108.66;5057795;28;20432;-82
2024/03/21 00:13:36;;;;;;;59.45;29.55;;;;;;;9.51;100.00;101107.56;5046140;28;20910;-82
2024/03/21 00:16:06;;;;;;;52.00;28.15;;;;;;;9.49;100.00;101096.13;5058245;28;20438;-82
2024/03/21 00:18:32;;;;;;;55.33;29.43;;;;;;;9.48;100.00;101097.22;5046827;28;20424;-82
2024/03/21 00:21:02;;;;;;;54.25;29.55;;;;;;;9.59;100.00;101097.28;5042923;28;20989;-81
2024/03/21 00:23:30;;;;;;;53.03;28.77;;;;;;;9.58;100.00;101096.44;5047395;28;20415;-82
2024/03/21 00:25:59;;;;;;;49.72;29.60;;;;;;;9.51;100.00;101096.72;5055504;28;21214;-82
2024/03/21 00:28:27;;;;;;;53.90;27.77;;;;;;;9.56;100.00;101095.09;5054489;28;20428;-81
2024/03/21 00:30:56;;;;;;;52.53;29.33;;;;;;;9.57;100.00;101092.13;5042095;28;20420;-81
2024/03/21 00:33:23;;;;;;;54.95;28.70;;;;;;;9.52;100.00;101078.50;5054816;28;20423;-81
2024/03/21 00:35:51;;;;;;;50.10;27.95;;;;;;;9.49;100.00;101087.19;5053790;28;20421;-82
2024/03/21 00:38:19;;;;;;;55.38;28.98;;;;;;;9.49;100.00;101073.59;5040995;28;20419;-82
2024/03/21 00:40:46;;;;;;;55.15;30.25;;;;;;;9.58;100.00;101071.19;5040937;28;20427;-82
2024/03/21 00:43:14;;;;;;;52.38;28.20;;;;;;;9.50;100.00;101069.78;5042941;28;20763;-82
2024/03/21 00:45:40;;;;;;;49.60;28.65;;;;;;;9.48;100.00;101069.22;5057330;28;20429;-82
2024/03/21 00:48:08;;;;;;;58.40;30.85;;;;;;;9.47;100.00;101065.72;5057093;28;20416;-82
2024/03/21 00:50:34;;;;;;;54.28;29.80;;;;;;;9.56;100.00;101062.50;5040950;28;20424;-81
2024/03/21 00:53:02;;;;;;;51.97;29.80;;;;;;;9.47;100.00;101054.84;5057040;28;20428;-81
2024/03/21 00:55:30;;;;;;;54.50;29.27;;;;;;;9.48;100.00;101056.44;5058993;28;20425;-82
2024/03/21 00:57:58;;;;;;;54.03;29.98;;;;;;;9.45;100.00;101046.13;5057335;28;20426;-82
2024/03/21 01:00:25;;;;;;;55.10;30.67;;;;;;;9.48;100.00;101048.31;5058064;28;20428;-82
2024/03/21 01:02:52;;;;;;;50.08;27.33;;;;;;;9.45;100.00;101043.41;5036994;28;20421;-82
2024/03/21 01:05:18;;;;;;;52.20;28.58;;;;;;;9.53;100.00;101047.53;5054118;28;20879;-82
2024/03/21 01:07:47;;;;;;;58.03;30.05;;;;;;;9.58;100.00;101038.56;5040715;28;20434;-82
2024/03/21 01:10:14;;;;;;;51.78;28.65;;;;;;;9.53;100.00;101039.38;5042157;28;20442;-81
2024/03/21 01:12:44;;;;;;;50.78;27.30;;;;;;;9.53;100.00;101039.38;5037855;28;20421;-82
2024/03/21 01:15:11;;;;;;;56.03;29.98;;;;;;;9.56;100.00;101035.31;5041101;28;20430;-82
2024/03/21 01:17:38;;;;;;;58.58;30.92;;;;;;;9.59;100.00;101043.75;5037094;28;20419;-82
2024/03/21 01:20:06;;;;;;;53.95;29.45;;;;;;;9.47;100.00;101041.25;5039630;28;20434;-82
2024/03/21 01:22:34;;;;;;;54.77;30.90;;;;;;;9.49;100.00;101039.06;5045622;28;20434;-82
2024/03/21 01:25:00;;;;;;;54.63;30.48;;;;;;;9.44;100.00;101039.03;5061765;28;20483;-82
2024/03/21 01:27:28;;;;;;;58.28;30.80;;;;;;;9.47;100.00;101040.41;5058541;28;20817;-82
2024/03/21 01:29:56;;;;;;;55.17;30.17;;;;;;;9.71;100.00;101040.81;5046357;28;20425;-82
2024/03/21 01:32:23;;;;;;;60.05;31.80;;;;;;;9.61;100.00;101041.59;5067048;28;20411;-82
2024/03/21 01:34:50;;;;;;;55.53;31.33;;;;;;;9.65;100.00;101034.56;5042122;28;20940;-82
2024/03/21 01:37:20;;;;;;;60.50;32.38;;;;;;;9.69;100.00;101029.38;5043669;28;20423;-82
2024/03/21 01:39:46;;;;;;;55.75;31.75;;;;;;;9.63;100.00;101031.25;5056952;28;20436;-82
2024/03/21 01:42:18;;;;;;;55.72;31.48;;;;;;;9.68;100.00;101034.00;5058560;28;20423;-82
2024/03/21 01:45:00;;;;;;;56.53;32.17;;;;;;;9.56;100.00;101017.09;5062040;28;20529;-82
2024/03/21 01:47:28;;;;;;;58.45;32.45;;;;;;;9.61;100.00;101019.03;5059959;28;20412;-83
2024/03/21 01:49:55;;;;;;;58.77;32.67;;;;;;;9.62;100.00;101017.94;5051574;28;21080;-82
2024/03/21 01:52:24;;;;;;;55.72;31.45;;;;;;;9.64;100.00;101013.03;5044092;28;20420;-82
2024/03/21 01:54:51;;;;;;;57.13;31.75;;;;;;;9.69;100.00;101003.03;5046698;28;20426;-83
2024/03/21 01:57:18;;;;;;;58.17;32.50;;;;;;;9.67;100.00;101002.47;5058342;28;20780;-83
2024/03/21 01:59:45;;;;;;;56.90;31.50;;;;;;;9.64;100.00;101003.03;5044004;28;20416;-83
2024/03/21 02:02:14;;;;;;;55.03;32.40;;;;;;;9.65;100.00;101001.09;5043760;28;20924;-83
2024/03/21 02:04:41;;;;;;;59.33;32.33;;;;;;;9.69;100.00;100999.50;5063682;28;20889;-83
2024/03/21 02:07:13;;;;;;;59.70;33.42;;;;;;;9.67;100.00;101002.47;5058002;28;20429;-83
2024/03/21 02:09:40;;;;;;;56.47;32.30;;;;;;;9.54;100.00;101000.25;5045401;28;20423;-83
2024/03/21 02:12:09;;;;;;;54.70;32.40;;;;;;;9.56;100.00;100995.38;5042588;28;20412;-83
2024/03/21 02:14:38;;;;;;;53.58;30.23;;;;;;;9.49;100.00;100995.63;5045255;28;20508;-83
2024/03/21 02:17:07;;;;;;;62.10;33.20;;;;;;;9.55;100.00;100992.94;5057534;28;20461;-83
2024/03/21 02:19:35;;;;;;;55.78;30.77;;;;;;;9.44;100.00;100997.50;5056930;28;20421;-83
2024/03/21 02:24:49;;;;;;;59.22;33.28;;;;;;;9.44;100.00;100983.91;5069743;28;20442;-83
2024/03/21 02:27:20;;;;;;;60.90;34.10;;;;;;;9.41;100.00;100992.59;5059389;28;20893;-83
2024/03/21 02:29:47;;;;;;;62.17;34.20;;;;;;;9.38;100.00;100991.22;5042709;28;20855;-83
2024/03/21 02:32:14;;;;;;;65.25;33.47;;;;;;;9.39;100.00;100990.16;5043917;28;20420;-84
2024/03/21 02:34:41;;;;;;;58.85;33.03;;;;;;;9.43;100.00;100995.84;5061900;28;20595;-84
2024/03/21 02:37:09;;;;;;;60.10;34.60;;;;;;;9.44;100.00;100992.06;5046488;28;20521;-84
2024/03/21 02:39:36;;;;;;;64.15;34.70;;;;;;;9.45;100.00;100988.25;5059102;28;20434;-83
2024/03/21 02:42:04;;;;;;;64.65;35.33;;;;;;;9.44;100.00;100983.91;5060575;28;20417;-83
2024/03/21 02:44:30;;;;;;;63.85;33.92;;;;;;;9.47;100.00;100992.34;5046969;28;20431;-83
2024/03/21 02:46:58;;;;;;;64.07;33.42;;;;;;;9.42;100.00;100989.59;5056165;28;20424;-83
2024/03/21 02:49:24;;;;;;;66.53;34.03;;;;;;;9.53;100.00;100987.75;5066159;28;20518;-84
2024/03/21 02:51:53;;;;;;;59.58;34.67;;;;;;;9.52;100.00;100994.28;5059136;28;20423;-83
2024/03/21 02:54:21;;;;;;;59.42;33.15;;;;;;;9.53;100.00;100994.00;5046214;28;20422;-84
2024/03/21 02:56:49;;;;;;;60.10;33.13;;;;;;;9.50;100.00;100988.25;5048879;28;20427;-84
2024/03/21 02:59:15;;;;;;;63.33;33.38;;;;;;;9.59;100.00;100983.16;5053015;28;20429;-84
2024/03/21 03:01:42;;;;;;;57.85;32.55;;;;;;;9.56;100.00;100984.50;5057976;28;21184;-83
2024/03/21 03:04:10;;;;;;;55.58;31.80;;;;;;;9.55;100.00;100982.06;5059838;28;20425;-83
2024/03/21 03:06:37;;;;;;;55.67;31.52;;;;;;;9.63;100.00;100981.53;5042828;28;20429;-83
2024/03/21 03:09:04;;;;;;;60.47;32.67;;;;;;;9.58;100.00;100984.22;5054362;28;20417;-84
2024/03/21 03:11:33;;;;;;;57.10;32.27;;;;;;;9.55;100.00;100991.00;5067421;28;20512;-84
2024/03/21 03:13:59;;;;;;;54.92;30.92;;;;;;;9.57;100.00;100994.28;5053802;28;20427;-84
2024/03/21 03:16:26;;;;;;;53.78;31.27;;;;;;;9.65;100.00;100984.81;5044335;28;20445;-84
2024/03/21 03:18:53;;;;;;;55.13;30.80;;;;;;;9.58;100.00;100985.03;5062257;28;20419;-85
2024/03/21 03:21:20;;;;;;;54.58;30.85;;;;;;;9.59;100.00;100983.16;5045768;28;20894;-84
2024/03/21 03:23:47;;;;;;;58.22;31.65;;;;;;;9.58;100.00;100979.59;5060623;28;20416;-85
2024/03/21 03:26:14;;;;;;;62.60;32.38;;;;;;;9.55;100.00;100966.56;5047414;28;20423;-84
2024/03/21 03:28:42;;;;;;;59.67;31.60;;;;;;;9.66;100.00;100964.69;5064445;28;20488;-84
2024/03/21 03:31:10;;;;;;;57.58;31.08;;;;;;;9.65;100.00;100961.19;5052778;28;20422;-85
2024/03/21 03:36:23;;;;;;;53.83;30.50;;;;;;;9.68;100.00;100963.34;5057780;28;20469;-85
2024/03/21 03:38:50;;;;;;;52.80;30.35;;;;;;;9.59;100.00;100966.84;5049174;28;20419;-85
2024/03/21 03:41:18;;;;;;;55.50;29.33;;;;;;;9.52;100.00;100967.09;5045273;28;20793;-85
2024/03/21 03:43:47;;;;;;;56.33;30.17;;;;;;;9.51;100.00;100973.59;5067230;28;20419;-85
2024/03/21 03:46:14;;;;;;;51.22;28.58;;;;;;;9.53;100.00;100979.59;5050920;28;20424;-86
2024/03/21 03:48:42;;;;;;;49.22;27.85;;;;;;;9.52;100.00;100980.69;5048552;28;20408;-85
2024/03/21 03:51:09;;;;;;;48.85;26.80;;;;;;;9.50;100.00;100978.22;5054716;28;20420;-85
2024/03/21 03:53:36;;;;;;;48.10;27.00;;;;;;;9.57;100.00;100998.91;5068199;28;20403;-86
2024/03/21 03:56:03;;;;;;;50.30;26.30;;;;;;;9.56;100.00;100994.56;5046824;28;20424;-86
2024/03/21 03:58:30;;;;;;;50.08;24.63;;;;;;;9.59;100.00;100992.13;5050953;28;20912;-85
2024/03/21 04:01:00;;;;;;;45.95;24.85;;;;;;;9.67;100.00;100993.53;5045257;28;20425;-85
2024/03/21 04:03:28;;;;;;;43.88;23.88;;;;;;;9.58;100.00;100992.38;5045380;28;21416;-85
2024/03/21 04:05:57;;;;;;;46.63;24.53;;;;;;;9.56;100.00;100986.41;5065651;28;20442;-85
2024/03/21 04:08:24;;;;;;;45.88;23.80;;;;;;;9.58;100.00;100990.47;5052244;28;20423;-86
2024/03/21 04:10:51;;;;;;;42.97;21.48;;;;;;;9.62;100.00;100996.22;5050467;28;20430;-85
2024/03/21 04:13:18;;;;;;;41.97;21.88;;;;;;;9.73;100.00;100989.72;5048026;28;20888;-85
2024/03/21 04:15:45;;;;;;;35.63;19.58;;;;;;;9.58;100.00;100993.19;5062223;28;20412;-85
2024/03/21 04:18:13;;;;;;;39.53;21.63;;;;;;;9.60;100.00;100988.31;5066053;28;20848;-85
2024/03/21 04:20:41;;;;;;;42.85;21.58;;;;;;;9.65;100.00;100988.34;5045512;28;20412;-86
2024/03/21 04:23:07;;;;;;;42.73;21.37;;;;;;;9.72;100.00;100984.56;5048467;28;20428;-86
2024/03/21 04:25:35;;;;;;;38.35;20.75;;;;;;;9.78;100.00;100978.88;5068425;28;20407;-85
2024/03/21 04:28:02;;;;;;;33.95;18.83;;;;;;;9.65;100.00;100972.06;5050737;28;20435;-86
2024/03/21 04:30:29;;;;;;;34.70;18.55;;;;;;;9.60;100.00;100979.34;5046040;28;20416;-85
2024/03/21 04:32:57;;;;;;;33.53;18.35;;;;;;;9.66;100.00;100981.00;5048658;28;20440;-86
2024/03/21 04:35:26;;;;;;;34.22;17.83;;;;;;;9.64;100.00;100978.56;5067789;28;20434;-86
2024/03/21 04:37:54;;;;;;;35.10;18.10;;;;;;;9.75;100.00;100975.88;5048688;28;20494;-86
2024/03/21 04:40:22;;;;;;;31.98;16.80;;;;;;;9.62;100.00;100975.28;5047771;28;20872;-86
2024/03/21 04:42:50;;;;;;;32.30;16.85;;;;;;;9.70;100.00;100982.09;5068599;28;20420;-86
2024/03/21 04:45:19;;;;;;;28.15;15.98;;;;;;;9.70;100.00;100976.69;5046153;28;20423;-86
2024/03/21 04:47:47;;;;;;;33.30;16.33;;;;;;;9.66;100.00;100986.44;5045915;28;20420;-86
2024/03/21 04:50:14;;;;;;;30.13;15.70;;;;;;;9.75;100.00;100976.69;5064870;28;20426;-85
2024/03/21 04:52:42;;;;;;;28.05;15.23;;;;;;;9.76;100.00;100980.22;5048422;28;20411;-86
2024/03/21 04:55:11;;;;;;;24.45;14.57;;;;;;;9.67;100.00;100975.31;5067642;28;20415;-86
2024/03/21 04:57:37;;;;;;;25.95;14.43;;;;;;;9.66;100.00;100981.00;5065068;28;20413;-87
2024/03/21 05:00:10;;;;;;;25.77;14.20;;;;;;;9.66;100.00;100975.56;5044548;28;20420;-86
2024/03/21 05:02:36;;;;;;;27.97;14.77;;;;;;;9.65;100.00;100973.94;5050487;28;20427;-86
2024/03/21 05:05:04;;;;;;;26.25;14.18;;;;;;;9.63;100.00;100971.47;5038555;28;20419;-86
2024/03/21 05:07:31;;;;;;;25.38;14.18;;;;;;;9.78;100.00;100978.06;5050809;28;21085;-87
2024/03/21 05:10:00;;;;;;;23.40;13.60;;;;;;;9.73;100.00;100970.69;5051330;28;20435;-86
2024/03/21 05:12:27;;;;;;;25.33;13.75;;;;;;;9.72;100.00;100960.91;5068855;28;20412;-86
2024/03/21 05:14:55;;;;;;;25.20;13.43;;;;;;;9.60;100.00;100969.31;5052380;28;20415;-86
2024/03/21 05:17:22;;;;;;;26.45;13.95;;;;;;;9.61;100.00;100981.81;5066178;28;20400;-86
2024/03/21 05:19:49;;;;;;;26.27;14.60;;;;;;;9.65;100.00;100969.34;5067949;28;20407;-86
2024/03/21 05:22:16;;;;;;;23.05;13.55;;;;;;;9.67;100.00;100967.16;5048003;28;20427;-87
2024/03/21 05:24:43;;;;;;;25.35;14.13;;;;;;;9.61;100.00;100970.94;5051172;28;21973;-87
2024/03/21 05:27:15;;;;;;;26.10;14.30;;;;;;;9.49;100.00;100967.63;5050230;28;20431;-86
2024/03/21 05:29:42;;;;;;;24.52;13.13;;;;;;;9.58;100.00;100974.16;5068118;28;20423;-86
2024/03/21 05:32:09;;;;;;;26.27;13.87;;;;;;;9.66;100.00;100975.56;5070883;28;20934;-86
2024/03/21 05:34:36;;;;;;;25.88;14.18;;;;;;;9.62;100.00;100969.84;5043407;28;20403;-86
2024/03/21 05:37:03;;;;;;;24.67;13.88;;;;;;;9.70;100.00;100960.38;5050865;28;20427;-85
2024/03/21 05:39:30;;;;;;;25.83;13.47;;;;;;;9.58;100.00;100967.94;5057523;28;20425;-86
2024/03/21 05:41:57;;;;;;;24.45;13.60;;;;;;;9.69;100.00;100969.59;5059209;28;20412;-86
2024/03/21 05:44:26;;;;;;;23.83;13.73;;;;;;;9.70;100.00;100982.91;5045908;28;20428;-87
2024/03/21 05:46:53;;;;;;;25.08;13.70;;;;;;;9.70;100.00;100976.69;5048725;28;20444;-86
2024/03/21 05:49:20;;;;;;;22.75;13.00;;;;;;;9.66;100.00;100978.28;5049904;28;20419;-87
2024/03/21 05:51:49;;;;;;;23.50;13.48;;;;;;;9.63;100.00;100986.97;5050144;28;20919;-86
2024/03/21 05:54:16;;;;;;;22.50;13.05;;;;;;;9.62;100.00;100985.34;5062537;28;23028;-87
2024/03/21 05:56:43;;;;;;;24.42;13.27;;;;;;;9.62;100.00;100986.16;5051995;28;20665;-87
2024/03/21 05:59:11;;;;;;;24.92;13.98;;;;;;;9.61;100.00;100979.09;5050583;28;20792;-87
2024/03/21 06:01:40;;;;;;;23.40;13.00;;;;;;;9.54;100.00;100975.78;5050142;28;20427;-87
2024/03/21 06:04:09;;;;;;;21.10;12.50;;;;;;;9.58;100.00;100974.16;5060513;28;20425;-87
2024/03/21 06:06:35;;;;;;;22.58;13.13;;;;;;;9.54;100.00;100973.06;5048729;28;20428;-87
2024/03/21 06:09:05;;;;;;;23.93;13.53;;;;;;;9.52;100.00;100977.97;5069572;28;20411;-87
2024/03/21 06:11:32;;;;;;;22.10;13.32;;;;;;;9.48;100.00;100979.56;5070623;28;21289;-87
2024/03/21 06:13:59;;;;;;;21.52;12.57;;;;;;;9.56;100.00;100980.97;5047923;28;20416;-87
2024/03/21 06:16:26;;;;;;;22.40;12.88;;;;;;;9.61;100.00;100972.81;5050696;28;20452;-87
2024/03/21 06:18:55;;;;;;;20.25;12.52;;;;;;;9.54;100.00;100975.78;5050114;28;21145;-87
2024/03/21 06:21:22;;;;;;;22.30;12.90;;;;;;;9.49;100.00;100976.59;5064641;28;20426;-87
2024/03/21 06:23:49;;;;;;;22.13;12.55;;;;;;;9.63;100.00;100976.91;5048632;28;20432;-87
2024/03/21 06:26:16;;;;;;;22.08;12.55;;;;;;;9.54;100.00;100981.22;5072180;28;20411;-87
2024/03/21 06:28:43;;;;;;;20.63;12.63;;;;;;;9.55;100.00;100980.16;5071652;28;20419;-87
2024/03/21 06:31:10;;;;;;;21.77;12.55;;;;;;;9.62;100.00;100985.34;5053894;28;20419;-87
2024/03/21 06:33:38;;;;;;;22.15;12.55;;;;;;;9.65;100.00;100980.19;5049527;28;20787;-87
2024/03/21 06:36:06;;;;;;;22.17;12.13;;;;;;;9.60;100.00;100982.06;5062898;28;20426;-87
2024/03/21 06:38:34;;;;;;;19.85;12.18;;;;;;;9.63;100.00;100981.53;5066048;28;20425;-87
2024/03/21 06:41:00;;;;;;;20.95;11.80;;;;;;;9.59;100.00;100980.44;5063565;28;20518;-87
2024/03/21 06:43:28;;;;;;;19.80;11.55;;;;;;;9.54;100.00;100975.78;5049471;28;20481;-87
2024/03/21 06:45:54;;;;;;;20.00;11.18;;;;;;;9.63;100.00;100985.06;5068407;28;20427;-87
2024/03/21 06:48:23;;;;;;;19.90;10.88;;;;;;;9.59;100.00;100988.59;5052951;28;20408;-86
2024/03/21 06:50:50;;;;;;;19.77;10.50;;;;;;;9.67;100.00;100982.66;5042911;28;20426;-86
2024/03/21 06:53:19;;;;;;;19.25;10.35;;;;;;;9.62;100.00;100988.88;5066064;28;20419;-86
2024/03/21 06:55:51;;;;;;;17.95;10.23;;;;;;;9.58;100.00;100997.81;5083207;28;20417;-87
2024/03/21 06:58:19;;;;;;;17.20;9.93;;;;;;;9.61;100.00;100987.25;5067506;28;20478;-87
2024/03/21 07:00:46;;;;;;;17.55;9.88;;;;;;;9.61;100.00;100997.28;5070129;28;20417;-87
2024/03/21 07:03:15;;;;;;;19.83;10.30;;;;;;;9.60;100.00;101010.06;5053445;28;20428;-87
2024/03/21 07:05:41;;;;;;;16.25;9.48;;;;;;;9.57;100.00;100996.19;5069342;28;20427;-87
2024/03/21 07:08:09;;;;;;;18.57;10.30;;;;;;;9.53;100.00;101001.34;5048400;28;20481;-87
2024/03/21 07:10:37;;;;;;;19.17;10.63;;;;;;;9.58;100.00;100997.81;5063118;28;20881;-86
2024/03/21 07:13:05;;;;;;;18.02;9.93;;;;;;;9.55;100.00;100999.16;5050669;28;20453;-86
2024/03/21 07:15:31;;;;;;;17.13;9.88;;;;;;;9.49;100.00;100992.09;5060912;28;20414;-87
2024/03/21 07:17:59;;;;;;;19.67;10.60;;;;;;;9.47;100.00;101013.25;5053342;28;20499;-87
2024/03/21 07:20:25;;;;;;;23.33;11.52;;;;;;;9.14;100.00;101016.06;5067641;28;20408;-85
2024/03/21 07:22:53;;;;;;;24.48;12.73;;;;;;;9.07;100.00;101028.22;5059848;28;20422;-86
2024/03/21 07:25:20;;;;;;;25.77;12.57;;;;;;;9.00;100.00;101028.44;5067918;28;20424;-86
2024/03/21 07:27:49;;;;;;;27.08;13.55;;;;;;;9.08;100.00;101038.81;5045371;28;20878;-86
2024/03/21 07:30:18;;;;;;;29.17;13.02;;;;;;;8.77;100.00;101051.34;5063801;28;20447;-86
2024/03/21 07:32:45;;;;;;;22.85;12.30;;;;;;;8.62;100.00;101049.31;5060559;28;20415;-85
2024/03/21 07:35:12;;;;;;;23.87;11.77;;;;;;;8.45;100.00;101046.72;5048847;28;20780;-85
2024/03/21 07:37:40;;;;;;;23.88;11.68;;;;;;;8.48;100.00;101057.06;5068576;28;20416;-86
2024/03/21 07:40:07;;;;;;;20.80;10.48;;;;;;;8.53;100.00;101059.81;5038995;28;20456;-86
2024/03/21 07:42:34;;;;;;;19.88;10.05;;;;;;;8.50;100.00;101066.56;5062079;28;20422;-86
2024/03/21 07:45:03;;;;;;;23.30;9.77;;;;;;;8.54;100.00;101071.50;5046410;28;20433;-86
2024/03/21 07:47:31;;;;;;;17.02;9.73;;;;;;;8.48;100.00;101071.44;5041434;28;20432;-85
2024/03/21 07:49:57;;;;;;;21.25;10.20;;;;;;;8.55;100.00;101075.81;5062162;28;20428;-86
2024/03/21 07:52:25;;;;;;;17.38;9.35;;;;;;;8.50;100.00;101079.31;5038288;28;20431;-85
2024/03/21 07:54:51;;;;;;;20.95;10.43;;;;;;;8.36;100.00;101099.75;5049083;28;20438;-86
2024/03/21 07:57:19;;;;;;;17.42;9.70;;;;;;;8.31;100.00;101093.22;5055904;28;20417;-84
2024/03/21 07:59:45;;;;;;;19.40;10.20;;;;;;;8.22;100.00;101097.44;5049385;28;21036;-84
2024/03/21 08:02:15;;;;;;;20.92;10.55;;;;;;;8.13;100.00;101088.94;5050423;28;20427;-87
2024/03/21 08:04:41;;;;;;;19.35;10.27;;;;;;;8.11;100.00;101091.06;5064584;28;20416;-87
2024/03/21 08:07:09;;;;;;;19.67;10.00;;;;;;;8.18;100.00;101096.31;5045901;28;20434;-87
2024/03/21 08:09:35;;;;;;;19.75;10.82;;;;;;;8.27;100.00;101092.06;5049494;28;20424;-87
2024/03/21 08:12:03;;;;;;;21.75;10.75;;;;;;;8.39;100.00;101093.81;5049737;28;20897;-86
2024/03/21 08:14:29;;;;;;;18.63;10.45;;;;;;;8.40;100.00;101109.84;5064327;28;20412;-87
2024/03/21 08:16:57;;;;;;;19.27;10.55;;;;;;;8.47;100.00;101121.34;5054512;28;20439;-86
2024/03/21 08:19:25;;;;;;;21.08;10.63;;;;;;;8.82;100.00;101116.50;5041484;28;20432;-86
2024/03/21 08:21:52;;;;;;;18.70;10.18;;;;;;;9.11;100.00;101114.31;5005171;28;20416;-87
2024/03/21 08:24:21;;;;;;;18.50;9.77;;;;;;;9.04;100.00;101119.16;5032085;28;20439;-87
2024/03/21 08:26:49;;;;;;;17.17;9.32;;;;;;;9.15;100.00;101115.44;5052730;28;20427;-87
2024/03/21 08:29:16;;;;;;;15.70;8.80;;;;;;;9.19;100.00;101115.75;5051989;28;20427;-87
2024/03/21 08:31:43;;;;;;;13.75;8.02;;;;;;;9.04;100.00;101129.22;5058161;28;20423;-85
2024/03/21 08:34:10;;;;;;;14.07;7.65;;;;;;;9.26;100.00;101138.06;5032527;28;20439;-86
2024/03/21 08:36:38;;;;;;;13.93;7.35;;;;;;;9.21;100.00;101138.06;5049777;28;20769;-86
2024/03/21 08:39:06;;;;;;;11.77;6.70;;;;;;;9.15;100.00;101139.06;5049626;28;20430;-85
2024/03/21 08:41:33;;;;;;;11.38;6.68;;;;;;;9.09;100.00;101142.84;5044236;28;20870;-86
2024/03/21 08:44:00;;;;;;;9.77;5.75;;;;;;;9.07;100.00;101155.84;5047176;28;20987;-86
2024/03/21 08:46:27;;;;;;;11.73;5.88;;;;;;;8.95;100.00;101166.84;5055683;28;20424;-86
2024/03/21 08:48:54;;;;;;;10.73;5.80;;;;;;;8.85;100.00;101168.41;5034937;28;20547;-86
2024/03/21 08:51:22;;;;;;;12.07;6.20;;;;;;;8.84;100.00;101169.47;5025923;28;20419;-86
2024/03/21 08:53:49;;;;;;;10.40;5.68;;;;;;;8.60;100.00;101173.56;5028802;28;20435;-86
2024/03/21 08:56:17;;;;;;;11.38;6.03;;;;;;;8.49;100.00;101170.75;5027428;28;20431;-86
2024/03/21 08:58:43;;;;;;;11.40;6.15;;;;;;;8.55;100.00;101179.75;5047426;28;20463;-86
2024/03/21 09:01:11;;;;;;;10.48;5.65;;;;;;;8.60;100.00;101185.22;5045156;28;20802;-86
2024/03/21 09:03:37;;;;;;;11.20;5.50;;;;;;;8.44;100.00;101192.34;5028884;28;20431;-86
2024/03/21 09:06:05;;;;;;;11.13;5.85;;;;;;;8.59;100.00;101196.31;5027999;28;20431;-86
2024/03/21 09:08:34;;;;;;;13.18;5.97;;;;;;;8.56;100.00;101191.41;5046489;28;20415;-86
2024/03/21 09:11:03;;;;;;;13.52;6.00;;;;;;;8.63;100.00;101192.88;5025868;28;20442;-86
2024/03/21 09:13:30;;;;;;;13.00;6.03;;;;;;;8.53;100.00;101205.47;5053122;28;20408;-86
2024/03/21 09:15:58;;;;;;;12.02;6.30;;;;;;;8.63;100.00;101202.88;5034116;28;21117;-86
2024/03/21 09:18:24;;;;;;;11.07;6.20;;;;;;;8.57;100.00;101212.84;5043696;28;21227;-86
2024/03/21 09:20:52;;;;;;;11.38;6.20;;;;;;;8.64;100.00;101226.22;5022912;28;20423;-86
2024/03/21 09:23:18;;;;;;;10.88;5.65;;;;;;;8.41;100.00;101230.81;5022762;28;20431;-86
2024/03/21 09:25:46;;;;;;;12.00;6.03;;;;;;;8.56;100.00;101242.94;5032945;28;21129;-86
2024/03/21 09:28:14;;;;;;;13.20;6.97;;;;;;;8.60;100.00;101238.66;5052342;28;20450;-86
2024/03/21 09:30:44;;;;;;;12.60;6.70;;;;;;;8.54;100.00;101245.91;5049130;28;20428;-87
2024/03/21 09:33:11;;;;;;;13.32;6.97;;;;;;;8.53;100.00;101252.41;5035059;28;20447;-86
2024/03/21 09:35:38;;;;;;;12.93;6.80;;;;;;;8.54;100.00;101253.25;5045556;28;20430;-86
2024/03/21 09:38:05;;;;;;;12.60;6.68;;;;;;;8.70;100.00;101255.09;5053106;28;20454;-86
2024/03/21 09:40:32;;;;;;;15.23;7.00;;;;;;;8.83;100.00;101259.28;5030025;28;20440;-86
2024/03/21 09:42:59;;;;;;;11.77;6.90;;;;;;;9.06;100.00;101255.47;5054421;28;20456;-86
2024/03/21 09:45:30;;;;;;;12.88;6.93;;;;;;;9.12;100.00;101262.59;5061954;28;20451;-86
2024/03/21 09:47:57;;;;;;;11.60;6.93;;;;;;;9.07;100.00;101257.09;5031220;28;20431;-86
2024/03/21 09:50:26;;;;;;;11.82;6.35;;;;;;;8.97;100.00;101249.66;5031025;28;20432;-85
2024/03/21 09:52:53;;;;;;;11.27;5.97;;;;;;;9.01;100.00;101261.66;5047044;28;21802;-86
2024/03/21 09:55:22;;;;;;;12.35;5.90;;;;;;;8.99;100.00;101260.28;5038197;28;20808;-86
2024/03/21 09:57:49;;;;;;;11.10;5.80;;;;;;;9.09;100.00;101260.41;5050464;28;20428;-85
2024/03/21 10:00:17;;;;;;;11.07;5.70;;;;;;;9.09;100.00;101263.09;5045818;28;21000;-85
2024/03/21 10:02:46;;;;;;;10.82;5.35;;;;;;;8.92;100.00;101256.94;5051099;28;20415;-86
2024/03/21 10:05:22;;;;;;;10.55;5.10;;;;;;;8.95;100.00;101265.41;5037854;28;20795;-86
2024/03/21 10:07:49;;;;;;;10.35;5.03;;;;;;;8.91;100.00;101269.69;5019771;28;20443;-86
2024/03/21 10:10:17;;;;;;;10.88;5.20;;;;;;;9.09;100.00;101270.44;5052371;28;20431;-86
2024/03/21 10:12:46;;;;;;;12.30;5.53;;;;;;;9.28;100.00;101274.44;5028200;28;20443;-86
2024/03/21 10:15:14;;;;;;;11.18;5.25;;;;;;;9.18;100.00;101274.31;5030601;28;21135;-86
2024/03/21 10:17:41;;;;;;;12.40;5.32;;;;;;;9.26;100.00;101270.34;5031659;28;21647;-86
2024/03/21 10:20:10;;;;;;;9.45;5.10;;;;;;;9.20;100.00;101272.19;5029854;28;20443;-85
2024/03/21 10:22:43;;;;;;;10.65;4.88;;;;;;;9.34;100.00;101275.31;5011651;28;20427;-86
2024/03/21 10:25:14;;;;;;;9.35;5.00;;;;;;;9.43;100.00;101268.34;5024686;28;20447;-85
2024/03/21 10:27:41;;;;;;;11.05;5.07;;;;;;;9.56;100.00;101269.00;5049617;28;20950;-87
2024/03/21 10:30:17;;;;;;;9.43;5.03;;;;;;;9.73;100.00;101279.72;5032695;28;20509;-88
2024/03/21 10:32:44;;;;;;;10.15;5.13;;;;;;;9.58;100.00;101286.66;5032360;28;20419;-88
2024/03/21 10:35:16;;;;;;;8.93;5.00;;;;;;;9.47;100.00;101290.38;5033167;28;20927;-88
2024/03/21 10:37:43;;;;;;;10.87;5.10;;;;;;;9.68;100.00;101285.91;5027095;28;20543;-88
2024/03/21 10:40:13;;;;;;;9.05;4.80;;;;;;;9.57;100.00;101295.06;5041158;28;20420;-88
2024/03/21 10:42:43;;;;;;;10.95;5.20;;;;;;;9.57;100.00;101297.78;5049379;28;20427;-88
2024/03/21 10:45:16;;;;;;;9.70;4.97;;;;;;;9.52;100.00;101304.81;5045668;28;21089;-88
2024/03/21 10:47:47;;;;;;;10.57;5.40;;;;;;;9.85;100.00;101296.69;5032012;28;20432;-88
2024/03/21 10:50:21;;;;;;;9.40;5.00;;;;;;;10.04;100.00;101299.81;5027731;28;20974;-88
2024/03/21 10:52:49;;;;;;;8.95;4.90;;;;;;;9.87;100.00;101313.53;5029706;28;20703;-87
2024/03/21 10:55:18;;;;;;;9.60;5.03;;;;;;;9.92;100.00;101313.59;5030799;28;20453;-88
2024/03/21 10:57:51;;;;;;;9.87;5.00;;;;;;;9.81;100.00;101306.44;5056378;28;20431;-88
2024/03/21 11:00:21;;;;;;;9.52;5.00;;;;;;;9.69;100.00;101317.47;5028439;28;20432;-87
2024/03/21 11:02:49;;;;;;;8.73;4.97;;;;;;;9.39;100.00;101326.16;5011466;28;20432;-88
2024/03/21 11:05:18;;;;;;;9.93;5.20;;;;;;;9.68;100.00;101332.97;5044237;28;21076;-88
2024/03/21 11:07:46;;;;;;;11.55;5.22;;;;;;;9.76;100.00;101328.13;5030845;28;20427;-88
2024/03/21 11:10:18;;;;;;;10.43;4.75;;;;;;;9.51;100.00;101341.25;5037578;28;20911;-87
2024/03/21 11:12:45;;;;;;;9.82;5.30;;;;;;;9.34;100.00;101340.50;5020591;28;20440;-87
2024/03/21 11:15:13;;;;;;;8.90;4.93;;;;;;;9.61;100.00;101343.22;5027494;28;21210;-88
2024/03/21 11:17:40;;;;;;;9.40;4.80;;;;;;;9.46;100.00;101343.91;5027456;28;20435;-87
2024/03/21 11:20:09;;;;;;;8.93;5.00;;;;;;;9.39;100.00;101346.00;5028819;28;20419;-87